Map

Track Data

SID SEASON NUMBER BASIN SUBBASIN NAME ISO_TIME NATURE LAT LON WMO_WIND WMO_PRES WMO_AGENCY TRACK_TYPE DIST2LAND LANDFALL IFLAG USA_AGENCY USA_ATCF_ID USA_LAT USA_LON USA_RECORD USA_STATUS USA_WIND USA_PRES USA_SSHS USA_R34_NE USA_R34_SE USA_R34_SW USA_R34_NW USA_R50_NE USA_R50_SE USA_R50_SW USA_R50_NW USA_R64_NE USA_R64_SE USA_R64_SW USA_R64_NW USA_POCI USA_ROCI USA_RMW USA_EYE TOKYO_LAT TOKYO_LON TOKYO_GRADE TOKYO_WIND TOKYO_PRES TOKYO_R50_DIR TOKYO_R50_LONG TOKYO_R50_SHORT TOKYO_R30_DIR TOKYO_R30_LONG TOKYO_R30_SHORT TOKYO_LAND CMA_LAT CMA_LON CMA_CAT CMA_WIND CMA_PRES HKO_LAT HKO_LON HKO_CAT HKO_WIND HKO_PRES NEWDELHI_LAT NEWDELHI_LON NEWDELHI_GRADE NEWDELHI_WIND NEWDELHI_PRES NEWDELHI_CI NEWDELHI_DP NEWDELHI_POCI REUNION_LAT REUNION_LON REUNION_TYPE REUNION_WIND REUNION_PRES REUNION_TNUM REUNION_CI REUNION_RMW REUNION_R34_NE REUNION_R34_SE REUNION_R34_SW REUNION_R34_NW REUNION_R50_NE REUNION_R50_SE REUNION_R50_SW REUNION_R50_NW REUNION_R64_NE REUNION_R64_SE REUNION_R64_SW REUNION_R64_NW BOM_LAT BOM_LON BOM_TYPE BOM_WIND BOM_PRES BOM_TNUM BOM_CI BOM_RMW BOM_R34_NE BOM_R34_SE BOM_R34_SW BOM_R34_NW BOM_R50_NE BOM_R50_SE BOM_R50_SW BOM_R50_NW BOM_R64_NE BOM_R64_SE BOM_R64_SW BOM_R64_NW BOM_ROCI BOM_POCI BOM_EYE BOM_POS_METHOD BOM_PRES_METHOD NADI_LAT NADI_LON NADI_CAT NADI_WIND NADI_PRES WELLINGTON_LAT WELLINGTON_LON WELLINGTON_WIND WELLINGTON_PRES DS824_LAT DS824_LON DS824_STAGE DS824_WIND DS824_PRES TD9636_LAT TD9636_LON TD9636_STAGE TD9636_WIND TD9636_PRES TD9635_LAT TD9635_LON TD9635_WIND TD9635_PRES TD9635_ROCI NEUMANN_LAT NEUMANN_LON NEUMANN_CLASS NEUMANN_WIND NEUMANN_PRES MLC_LAT MLC_LON MLC_CLASS MLC_WIND MLC_PRES USA_GUST BOM_GUST BOM_GUST_PER REUNION_GUST REUNION_GUST_PER USA_SEAHGT USA_SEARAD_NE USA_SEARAD_SE USA_SEARAD_SW USA_SEARAD_NW STORM_SPEED STORM_DIR
1995059S11155 1995 9 SP EA VIOLET 1995-02-28 00:00:00 TS -11.0000 155.000 main 386 386 O___________O_ jtwc_sh SH141995 -11.0000 155.000 15 -1 -11.0000 155.000 TC 15 4 227
1995059S11155 1995 9 SP EA VIOLET 1995-02-28 03:00:00 TS -11.1400 154.850 main 402 402 P___________P_ SH141995 -11.1400 154.850 15 -1 -11.1400 154.850 TC 15 4 224
1995059S11155 1995 9 SP EA VIOLET 1995-02-28 06:00:00 TS -11.3000 154.700 main 433 433 O___________O_ jtwc_sh SH141995 -11.3000 154.700 15 -1 -11.3000 154.700 TC 15 5 220
1995059S11155 1995 9 SP EA VIOLET 1995-02-28 09:00:00 TS -11.4925 154.550 main 437 419 P___________P_ SH141995 -11.4925 154.550 15 -1 -11.4925 154.550 TC 15 5 216
1995059S11155 1995 9 SP EA VIOLET 1995-02-28 12:00:00 TS -11.7000 154.400 main 422 415 O___________O_ jtwc_sh SH141995 -11.7000 154.400 15 -1 -11.7000 154.400 TC 15 5 216
1995059S11155 1995 9 SP EA VIOLET 1995-02-28 15:00:00 TS -11.9000 154.250 main 418 402 P___________P_ SH141995 -11.9000 154.250 15 -1 -11.9000 154.250 TC 15 5 216
1995059S11155 1995 9 SP EA VIOLET 1995-02-28 18:00:00 TS -12.1000 154.100 main 407 397 O___________O_ jtwc_sh SH141995 -12.1000 154.100 15 -1 -12.1000 154.100 TC 15 5 218
1995059S11155 1995 9 SP EA VIOLET 1995-02-28 21:00:00 TS -12.2925 153.935 main 397 393 P___________P_ SH141995 -12.2925 153.935 17 -1 -12.2925 153.935 TC 17 5 216
1995059S11155 1995 9 SP EA VIOLET 1995-03-01 00:00:00 TS -12.5000 153.800 main 399 399 O___________O_ jtwc_sh SH141995 -12.5000 153.800 20 -1 -12.5000 153.800 TC 20 5 203
1995059S11155 1995 9 SP EA VIOLET 1995-03-01 03:00:00 TS -12.7425 153.735 main 402 402 P___________P_ SH141995 -12.7425 153.735 20 -1 -12.7425 153.735 TC 20 5 191
1995059S11155 1995 9 SP EA VIOLET 1995-03-01 06:00:00 TS -13.0000 153.700 main 423 423 O___________O_ jtwc_sh SH141995 -13.0000 153.700 20 -1 -13.0000 153.700 TC 20 5 188
1995059S11155 1995 9 SP EA VIOLET 1995-03-01 09:00:00 TS -13.2575 153.650 main 445 437 P___________P_ SH141995 -13.2575 153.650 20 -1 -13.2575 153.650 TC 20 5 191
1995059S11155 1995 9 SP EA VIOLET 1995-03-01 12:00:00 TS -13.5000 153.600 main 452 452 O___________O_ jtwc_sh SH141995 -13.5000 153.600 20 -1 -13.5000 153.600 TC 20 5 192
1995059S11155 1995 9 SP EA VIOLET 1995-03-01 15:00:00 TS -13.7075 153.550 main 469 461 P___________P_ SH141995 -13.7075 153.550 20 -1 -13.7075 153.550 TC 20 4 193
1995059S11155 1995 9 SP EA VIOLET 1995-03-01 18:00:00 TS -13.9000 153.500 main 478 478 O___________O_ jtwc_sh SH141995 -13.9000 153.500 20 -1 -13.9000 153.500 TC 20 4 192
1995059S11155 1995 9 SP EA VIOLET 1995-03-01 21:00:00 TS -14.1000 153.457 main 496 496 P___________P_ SH141995 -14.1000 153.457 20 -1 -14.1000 153.457 TC 20 3 0
1995059S11155 1995 9 SP EA VIOLET 1995-03-02 00:00:00 TS -14.1889 153.500 25 1000 bom main 505 505 O_____O_____O_ jtwc_sh SH141995 -14.3000 153.400 20 -1 -13.3000 154.300 20 25 1000 2.00000 -14.3000 153.400 TC 20 3 0
1995059S11155 1995 9 SP EA VIOLET 1995-03-02 03:00:00 TS -14.3665 153.476 main 523 523 P_____P_____P_ SH141995 -14.5075 153.308 22 -1 -13.8025 154.150 20 27 999 -14.5075 153.308 TC 22 4 192
1995059S11155 1995 9 SP EA VIOLET 1995-03-02 06:00:00 TS -14.5636 153.418 30 998 bom main 535 535 O_____O_____O_ jtwc_sh SH141995 -14.7000 153.200 25 -1 -14.2000 154.000 20 30 998 2.50000 -14.7000 153.200 TC 25 4 200
1995059S11155 1995 9 SP EA VIOLET 1995-03-02 09:00:00 TS -14.7200 153.350 main 538 538 P_____P_____P_ SH141995 -14.8650 153.100 25 -1 -14.4300 153.850 20 32 996 -14.8650 153.100 TC 25 4 210
1995059S11155 1995 9 SP EA VIOLET 1995-03-02 12:00:00 TS -14.8667 153.233 35 995 bom main 552 552 O_____O_____O_ jtwc_sh SH141995 -15.0000 153.000 25 -1 -14.6000 153.700 30 35 995 3.00000 -15.0000 153.000 TC 25 4 218
1995059S11155 1995 9 SP EA VIOLET 1995-03-02 15:00:00 TS -15.0167 153.112 main 557 557 P_____P_____P_ SH141995 -15.1000 152.892 25 -1 -14.8500 153.550 30 37 995 -15.1000 152.892 TC 25 4 217
1995059S11155 1995 9 SP EA VIOLET 1995-03-02 18:00:00 TS -15.1667 153.000 40 995 bom main 572 572 O_____O_____O_ jtwc_sh SH141995 -15.2000 152.800 25 -1 -15.1000 153.400 30 40 995 3.00000 -15.2000 152.800 TC 25 4 210
1995059S11155 1995 9 SP EA VIOLET 1995-03-02 21:00:00 TS -15.3283 152.929 main 577 577 P_____P_____P_ SH141995 -15.3425 152.757 27 -1 -15.2999 153.272 30 40 993 -15.3425 152.757 TC 27 4 222
1995059S11155 1995 9 SP EA VIOLET 1995-03-03 00:00:00 TS -15.5000 152.692 40 992 bom main 589 586 O_____O_O___O_ jtwc_sh SH141995 -15.5000 152.700 30 -1 -15.5000 153.100 30 40 992 3.00000 -15.5000 151.000 30 997 -15.5000 152.700 TC 30 6 233
1995059S11155 1995 9 SP EA VIOLET 1995-03-03 03:00:00 TS -15.6598 152.465 main 603 599 P_____P_P___P_ SH141995 -15.6350 152.543 32 -1 -15.7352 152.770 30 42 991 -15.6079 151.543 32 996 -15.6350 152.543 TC 32 5 223
1995059S11155 1995 9 SP EA VIOLET 1995-03-03 06:00:00 TS -15.8533 152.347 45 990 bom main 615 604 O_____O_O___O_ jtwc_sh SH141995 -15.8000 152.400 35 0 -16.0000 152.500 30 45 990 3.00000 187 -15.8000 152.000 35 995 -15.8000 152.400 TC 35 5 190
1995059S11155 1995 9 SP EA VIOLET 1995-03-03 09:00:00 TS -16.1224 152.383 main 604 585 P_____P_P___P_ SH141995 -16.0275 152.363 35 0 -16.3074 152.497 30 45 990 187 -16.1274 152.310 37 992 -16.0275 152.363 TC 35 6 168
1995059S11155 1995 9 SP EA VIOLET 1995-03-03 12:00:00 TS -16.4250 152.475 45 990 bom main 585 560 O_____O_O___O_ jtwc_sh SH141995 -16.3000 152.400 35 0 -16.6000 152.600 30 45 990 3.00000 187 -16.5000 152.500 40 990 -16.3000 152.400 TC 35 6 165
1995059S11155 1995 9 SP EA VIOLET 1995-03-03 15:00:00 TS -16.7093 152.548 main 560 544 P_____P_P___P_ SH141995 -16.5925 152.470 35 0 -16.8225 152.635 30 45 990 200 -16.8299 152.615 40 990 -16.5925 152.470 TC 35 6 163
1995059S11155 1995 9 SP EA VIOLET 1995-03-03 18:00:00 TS -16.9750 152.650 45 990 bom main 552 544 O_____O_O___O_ jtwc_sh SH141995 -16.9000 152.600 35 0 -17.0000 152.700 30 45 990 3.00000 214 -17.1000 152.700 40 990 -16.9000 152.600 TC 35 6 154
1995059S11155 1995 9 SP EA VIOLET 1995-03-03 21:00:00 TS -17.2056 152.806 main 545 538 P_____P_P___P_ SH141995 -17.2075 152.770 35 0 -17.1425 152.835 30 47 987 214 -17.2650 152.850 40 990 -17.2075 152.770 TC 35 6 144
1995059S11155 1995 9 SP EA VIOLET 1995-03-04 00:00:00 TS -17.4250 153.000 50 985 bom main 548 541 O_____O_O___O_ jtwc_sh SH141995 -17.5000 153.000 35 0 -17.3000 153.000 30 50 985 3.50000 214 -17.4000 153.000 40 990 -17.5000 153.000 TC 35 6 141
1995059S11155 1995 9 SP EA VIOLET 1995-03-04 03:00:00 TS -17.6606 153.194 main 546 546 P_____P_P___P_ SH141995 -17.7500 153.278 37 0 -17.5425 153.143 30 52 985 214 -17.5999 153.078 42 988 -17.7500 153.278 TC 37 6 140
1995059S11155 1995 9 SP EA VIOLET 1995-03-04 06:00:00 TS -17.9000 153.425 55 985 bom main 552 552 O_____O_O___O_ jtwc_sh SH141995 -18.0000 153.600 40 0 -17.8000 153.300 30 55 985 4.00000 214 -17.8000 153.200 45 987 -18.0000 153.600 TC 40 7 133
1995059S11155 1995 9 SP EA VIOLET 1995-03-04 09:00:00 TS -18.1149 153.699 main 570 564 P_____P_P___P_ SH141995 -18.2849 153.935 42 0 -17.9774 153.463 30 55 982 214 -17.9125 153.463 47 986 -18.2849 153.935 TC 42 7 130
1995059S11155 1995 9 SP EA VIOLET 1995-03-04 12:00:00 TS -18.3750 154.025 55 980 bom main 564 558 O_____O_O___O_ jtwc_sh SH141995 -18.6000 154.300 45 0 -18.2000 153.700 30 55 980 4.00000 214 -18.1000 153.800 50 985 -18.6000 154.300 TC 45 9 134
1995059S11155 1995 9 SP EA VIOLET 1995-03-04 15:00:00 TS -18.7399 154.386 main 565 555 P_____P_P___P_ SH141995 -18.9349 154.685 47 0 -18.5700 154.055 30 60 977 254 -18.5198 154.120 52 982 -18.9349 154.685 TC 47 11 137
1995059S11155 1995 9 SP EA VIOLET 1995-03-04 18:00:00 TS -19.1500 154.800 65 975 bom main 563 555 O_____O_O___O_ jtwc_sh SH141995 -19.3000 155.100 50 0 -19.0000 154.500 40 65 975 4.50000 295 -19.0000 154.500 55 980 -19.3000 155.100 TC 50 11 134
1995059S11155 1995 9 SP EA VIOLET 1995-03-04 21:00:00 TS -19.5185 155.236 main 566 566 P_____P_P___P_ SH141995 -19.6773 155.528 52 0 -19.3846 154.948 40 70 972 295 -19.3347 154.941 60 975 -19.6773 155.528 TC 52 12 131
1995059S11155 1995 9 SP EA VIOLET 1995-03-05 00:00:00 TS -19.9250 155.750 75 970 bom main 594 584 O_____O_O___O_ jtwc_sh SH141995 -20.1000 156.000 55 0 -19.8000 155.500 40 75 970 4.50000 295 -19.7000 155.500 65 970 -20.1000 156.000 TC 55 14 129
1995059S11155 1995 9 SP EA VIOLET 1995-03-05 03:00:00 TS -20.3965 156.389 main 585 570 P_____P_P___P_ SH141995 -20.5700 156.535 60 0 -20.2555 156.243 40 77 967 254 -20.1905 156.242 67 967 -20.5700 156.535 TC 60 16 130
1995059S11155 1995 9 SP EA VIOLET 1995-03-05 06:00:00 TS -20.9500 157.050 80 965 bom main 584 565 O_____O_O___O_ jtwc_sh SH141995 -21.1000 157.100 65 1 -20.8000 157.000 40 80 965 5.00000 214 -20.8000 157.000 70 965 -21.1000 157.100 TC 65 17 136
1995059S11155 1995 9 SP EA VIOLET 1995-03-05 09:00:00 TS -21.5803 157.621 main 566 563 P_____P_P___P_ SH141995 -21.6623 157.651 70 1 -21.4321 157.588 40 82 962 254 -21.5646 157.595 72 962 -21.6623 157.651 TC 75 17 142
1995059S11155 1995 9 SP EA VIOLET 1995-03-05 12:00:00 TS -22.2750 158.150 85 960 bom main 572 563 O_____O_O___O_ jtwc_sh SH141995 -22.3000 158.200 75 1 -22.2000 158.100 40 85 960 5.00000 295 -22.3000 158.100 75 960 -22.3000 158.200 TC 85 960 17 145
1995059S11155 1995 9 SP EA VIOLET 1995-03-05 15:00:00 TS -22.9492 158.671 main 587 582 P_____P_P___P_ SH141995 -23.0050 158.765 75 1 -23.0975 158.630 40 82 962 295 -22.6893 158.523 75 960 -23.0050 158.765 TC 85 960 17 147
1995059S11155 1995 9 SP EA VIOLET 1995-03-05 18:00:00 TS -23.7250 159.175 80 965 bom main 604 602 O_____O_O___O_ jtwc_sh SH141995 -23.8000 159.300 75 1 -24.1000 159.100 40 80 965 5.00000 295 -23.2000 159.000 75 960 -23.8000 159.300 TC 85 960 20 150
1995059S11155 1995 9 SP EA VIOLET 1995-03-05 21:00:00 TS -24.6748 159.750 main 638 638 P_____P_P___P_ SH141995 -24.6552 159.839 72 1 -25.1574 159.510 40 75 967 295 -24.2314 159.813 72 962 -24.6552 159.839 TC 77 22 156
1995059S11155 1995 9 SP MM VIOLET 1995-03-06 00:00:00 TS -25.7250 160.175 70 970 bom main 678 678 O_____O_O___O_ jtwc_sh SH141995 -25.6000 160.200 70 1 -26.2000 159.800 40 70 970 4.50000 295 -25.5000 160.500 70 965 -25.6000 160.200 TC 70 22 166
1995059S11155 1995 9 SP MM VIOLET 1995-03-06 03:00:00 TS -26.7794 160.316 main 678 648 P_____P_P___P_ SH141995 -26.6346 160.270 67 1 -27.0996 160.019 40 67 970 254 -26.7489 160.703 65 970 -26.6346 160.270 TC 67 21 179
1995059S11155 1995 9 SP MM VIOLET 1995-03-06 06:00:00 TS -27.8500 160.175 65 970 bom main 648 612 O_____O_O___O_ jtwc_sh SH141995 -27.7000 160.100 65 1 -28.0000 160.000 40 65 970 4.50000 214 -28.0000 160.500 60 975 -27.7000 160.100 TC 65 23 189
1995059S11155 1995 9 SP EA VIOLET 1995-03-06 09:00:00 TS -29.0056 159.898 main 612 562 P_____P_P___P_ SH141995 -28.7741 159.877 62 0 -29.1536 159.739 40 62 972 214 -29.3208 160.098 57 977 -28.7741 159.877 TC 62 22 200
1995059S11155 1995 9 SP EA VIOLET 1995-03-06 12:00:00 TS -29.9500 159.300 60 975 bom main 562 492 O_____O_O___O_ jtwc_sh SH141995 -29.7000 159.400 60 0 -30.1000 159.100 30 60 975 4.00000 214 -30.3000 159.300 55 980 -29.7000 159.400 TC 60 20 223
1995059S11155 1995 9 SP EA VIOLET 1995-03-06 15:00:00 TS -30.4722 158.305 main 484 382 P_____P_P___P_ SH141995 -30.4153 158.600 55 0 -30.4820 158.017 30 57 977 214 -30.5761 158.004 50 983 -30.4153 158.600 TC 55 20 249
1995059S11155 1995 9 SP EA VIOLET 1995-03-06 18:00:00 TS -30.6500 157.175 55 980 bom main 382 291 O_____O_O___O_ jtwc_sh SH141995 -30.8000 157.600 50 0 -30.5000 156.800 30 55 980 3.50000 214 -30.5000 156.700 45 987 -30.8000 157.600 TC 50 18 264
1995059S11155 1995 9 SP EA VIOLET 1995-03-06 21:00:00 TS -30.6644 156.199 main 291 212 P_____P_P___P_ SH141995 -30.8432 156.553 45 0 -30.4322 155.786 30 55 980 214 -30.5389 155.905 42 988 -30.8432 156.553 TC 45 15 277
1995059S11155 1995 9 SP EA VIOLET 1995-03-07 00:00:00 TS -30.4750 155.400 55 980 bom main 212 148 O_____O_O___O_ jtwc_sh SH141995 -30.6000 155.600 40 0 -30.2000 155.000 30 55 980 3.00000 214 -30.5000 155.400 40 990 -30.6000 155.600 TC 40 13 292
1995059S11155 1995 9 SP EA VIOLET 1995-03-07 03:00:00 TS -30.1688 154.792 main 148 105 P_____P_P___P_ SH141995 -30.2369 154.872 37 0 -29.8716 154.487 30 52 982 187 -30.3297 154.937 38 991 -30.2369 154.872 TC 37 11 309
1995059S11155 1995 9 SP EA VIOLET 1995-03-07 06:00:00 TS -29.7905 154.407 50 985 bom main 105 78 O_____O_P___O_ jtwc_sh SH141995 -29.8000 154.400 35 0 -29.5000 154.200 30 50 985 2.50000 160 -30.0666 154.626 37 992 -29.8000 154.400 TC 35 9 324
1995059S11155 1995 9 SP EA VIOLET 1995-03-07 09:00:00 TS -29.4551 154.202 main 78 58 P_____P_P___P_ SH141995 -29.4251 154.181 32 -1 -29.1698 153.975 30 47 986 146 -29.7703 154.451 36 993 -29.4251 154.181 TC 32 7 339
1995059S11155 1995 9 SP EA VIOLET 1995-03-07 12:00:00 TS -29.1800 154.140 45 988 bom main 58 49 O_____O_O___O_ jtwc_sh SH141995 -29.1000 154.100 30 -1 -28.9000 153.900 30 45 988 2.00000 133 -29.5000 154.400 35 995 -29.1000 154.100 TC 30 5 359
1995059S11155 1995 9 SP EA VIOLET 1995-03-07 15:00:00 NR -28.9485 154.172 main 58 58 ______P_P_____ SH141995 -1 -28.6597 153.903 30 42 989 133 -29.2374 154.441 33 995 TC 4 32
1995059S11155 1995 9 SP EA VIOLET 1995-03-07 18:00:00 NR -28.8429 154.380 40 990 bom main 77 77 ______O_P_____ -1 -28.6000 154.100 30 40 990 2.00000 133 -29.0251 154.590 32 996 5 83
1995059S11155 1995 9 SP EA VIOLET 1995-03-07 21:00:00 NR -28.8895 154.706 main 106 106 ______P_P_____ -1 -28.8183 154.531 30 37 992 146 -28.9251 154.794 31 996 6 109
1995059S11155 1995 9 SP EA VIOLET 1995-03-08 00:00:00 NR -29.0400 155.020 35 994 bom main 136 136 ______O_O_____ -1 -29.2000 155.100 30 35 994 1.50000 160 -29.0000 155.000 30 997 6 142
1995059S11155 1995 9 SP EA VIOLET 1995-03-08 03:00:00 NR -29.3404 155.112 main 152 152 ________P_____ -1 30 -29.3404 155.112 30 997 8 168
1995059S11155 1995 9 SP EA VIOLET 1995-03-08 06:00:00 NR -29.8497 155.220 main 179 179 ________P_____ -1 -29.8497 155.220 30 997 11 170
1995059S11155 1995 9 SP EA VIOLET 1995-03-08 09:00:00 NR -30.4342 155.343 main 199 199 ________P_____ -1 -30.4342 155.343 30 997 12 168
1995059S11155 1995 9 SP EA VIOLET 1995-03-08 12:00:00 NR -31.0000 155.500 main 228 228 ________O_____ -1 -31.0000 155.500 30 997 11 164
1995059S11155 1995 9 SP EA VIOLET 1995-03-08 15:00:00 NR -31.4738 155.703 main 250 250 ________P_____ -1 -31.4738 155.703 30 997 9 156
1995059S11155 1995 9 SP EA VIOLET 1995-03-08 18:00:00 NR -31.8631 155.946 main 279 279 ________P_____ -1 -31.8631 155.946 30 997 8 149
1995059S11155 1995 9 SP EA VIOLET 1995-03-08 21:00:00 NR -32.1959 156.216 main 317 317 ________P_____ -1 -32.1959 156.216 30 997 8 144
1995059S11155 1995 9 SP EA VIOLET 1995-03-09 00:00:00 NR -32.5000 156.500 main 355 ________O_____ -1 -32.5000 156.500 30 997 8 142

Digital Typhoon Data and Search

About IBTrACS Database

This database is a web-friendly format of International Best Track Archive for Climate Stewardship (IBTrACS), a global best track data archive curated by NOAA dating back to 1842.

Updated: 2021-12-03